createdAt,value
2018-04-30T00:00:18.907Z,14.00
2018-04-30T00:02:45.744Z,12.47
2018-04-30T00:05:11.824Z,12.80
2018-04-30T00:07:37.922Z,13.47
2018-04-30T00:10:04.111Z,12.67
2018-04-30T00:12:30.355Z,13.47
2018-04-30T00:14:56.429Z,11.70
2018-04-30T00:17:22.581Z,11.67
2018-04-30T00:19:48.671Z,11.90
2018-04-30T00:22:14.732Z,11.87
2018-04-30T00:24:40.754Z,10.97
2018-04-30T00:27:13.663Z,10.50
2018-04-30T00:29:39.766Z,11.40
2018-04-30T00:32:05.821Z,10.87
2018-04-30T00:34:31.950Z,11.87
2018-04-30T00:36:58.007Z,10.47
2018-04-30T00:39:24.171Z,10.47
2018-04-30T00:41:50.266Z,10.50
2018-04-30T00:44:16.449Z,10.27
2018-04-30T00:46:42.566Z,10.07
2018-04-30T00:49:08.648Z,9.90
2018-04-30T00:51:34.698Z,10.97
2018-04-30T00:54:01.535Z,9.03
2018-04-30T00:56:27.671Z,9.60
2018-04-30T00:58:53.784Z,8.60
2018-04-30T01:01:20.057Z,9.17
2018-04-30T01:03:46.145Z,8.93
2018-04-30T01:06:12.312Z,9.67
2018-04-30T01:08:38.426Z,9.67
2018-04-30T01:11:04.498Z,9.20
2018-04-30T01:13:30.589Z,8.70
2018-04-30T01:15:56.677Z,9.20
2018-04-30T01:18:22.828Z,8.77
2018-04-30T01:20:49.592Z,8.57
2018-04-30T01:23:16.402Z,9.07
2018-04-30T01:25:42.521Z,8.30
2018-04-30T01:28:08.614Z,8.90
2018-04-30T01:30:35.694Z,8.37
2018-04-30T01:33:01.842Z,8.80
2018-04-30T01:35:27.908Z,8.00
2018-04-30T01:37:55.348Z,8.50
2018-04-30T01:40:22.185Z,8.97
2018-04-30T01:42:48.274Z,8.73
2018-04-30T01:45:14.419Z,9.13
2018-04-30T01:47:40.518Z,8.70
2018-04-30T01:50:07.359Z,8.73
2018-04-30T01:52:33.418Z,9.13
2018-04-30T01:54:59.526Z,7.90
2018-04-30T01:57:25.698Z,8.73
2018-04-30T01:59:51.852Z,8.50
2018-04-30T02:02:17.884Z,8.33
2018-04-30T02:04:43.985Z,8.30
2018-04-30T02:07:10.127Z,8.43
2018-04-30T02:09:36.231Z,9.67
2018-04-30T02:12:02.261Z,9.20
2018-04-30T02:14:28.380Z,9.03
2018-04-30T02:16:56.211Z,9.20
2018-04-30T02:19:23.106Z,9.63
2018-04-30T02:21:49.187Z,10.60
2018-04-30T02:24:15.243Z,9.37
2018-04-30T02:26:41.318Z,10.40
2018-04-30T02:29:07.398Z,9.63
2018-04-30T02:31:33.480Z,9.33
2018-04-30T02:33:59.547Z,9.70
2018-04-30T02:36:25.644Z,10.37
2018-04-30T02:38:51.818Z,9.47
2018-04-30T02:41:17.913Z,9.20
2018-04-30T02:43:44.007Z,10.07
2018-04-30T02:46:10.174Z,10.27
2018-04-30T02:48:36.960Z,10.20
2018-04-30T02:51:03.763Z,10.03
2018-04-30T02:53:29.827Z,9.70
2018-04-30T02:55:55.990Z,9.80
2018-04-30T02:58:22.854Z,9.70
2018-04-30T03:00:49.690Z,10.33
2018-04-30T03:03:15.740Z,10.33
2018-04-30T03:05:42.554Z,10.50
2018-04-30T03:08:08.672Z,10.83
2018-04-30T03:10:34.699Z,10.10
2018-04-30T03:13:01.043Z,11.20
2018-04-30T03:15:27.157Z,10.63
2018-04-30T03:17:53.993Z,10.17
2018-04-30T03:20:20.137Z,11.00
2018-04-30T03:22:46.207Z,11.37
2018-04-30T03:25:12.267Z,11.23
2018-04-30T03:27:38.315Z,11.10
2018-04-30T03:30:04.392Z,11.67
2018-04-30T03:32:31.180Z,12.10
2018-04-30T03:34:57.210Z,11.37
2018-04-30T03:37:23.337Z,12.40
2018-04-30T03:39:49.432Z,11.73
2018-04-30T03:42:15.493Z,10.77
2018-04-30T03:44:41.535Z,11.47
2018-04-30T03:47:07.619Z,11.37
2018-04-30T03:49:33.644Z,11.77
2018-04-30T03:51:59.702Z,12.40
2018-04-30T03:54:25.767Z,11.43
2018-04-30T03:56:51.834Z,10.87
2018-04-30T03:59:18.627Z,11.77
2018-04-30T04:01:57.316Z,11.53
2018-04-30T04:04:36.375Z,12.47
2018-04-30T04:07:02.448Z,11.60
2018-04-30T04:12:01.533Z,12.30
2018-04-30T04:14:27.557Z,12.53
2018-04-30T04:16:53.689Z,11.90
2018-04-30T04:19:19.749Z,11.90
2018-04-30T04:21:46.520Z,12.43
2018-04-30T04:24:12.605Z,11.97
2018-04-30T04:26:38.658Z,12.13
2018-04-30T04:29:04.718Z,12.30
2018-04-30T04:31:31.554Z,12.17
2018-04-30T04:33:57.617Z,11.37
2018-04-30T04:36:24.434Z,12.90
2018-04-30T04:38:51.734Z,12.10
2018-04-30T04:41:18.550Z,12.30
2018-04-30T04:43:44.642Z,13.43
2018-04-30T04:46:10.724Z,12.57
2018-04-30T04:48:36.794Z,12.97
2018-04-30T04:51:02.969Z,12.30
2018-04-30T04:53:29.039Z,13.63
2018-04-30T04:55:55.218Z,12.93
2018-04-30T04:58:22.197Z,12.73
2018-04-30T05:00:48.681Z,14.00
2018-04-30T05:03:14.979Z,13.60
2018-04-30T05:05:41.104Z,14.20
2018-04-30T05:08:08.049Z,13.10
2018-04-30T05:10:34.125Z,13.00
2018-04-30T05:13:00.234Z,12.77
2018-04-30T05:15:26.335Z,13.57
2018-04-30T05:17:52.467Z,13.57
2018-04-30T05:20:18.530Z,13.90
2018-04-30T05:22:44.610Z,12.23
2018-04-30T05:25:10.680Z,12.13
2018-04-30T05:27:36.817Z,13.27
2018-04-30T05:30:02.881Z,12.50
2018-04-30T05:32:28.979Z,11.63
2018-04-30T05:34:55.090Z,12.50
2018-04-30T05:37:22.017Z,12.90
2018-04-30T05:39:48.898Z,12.47
2018-04-30T05:42:15.718Z,12.70
2018-04-30T05:44:41.812Z,12.30
2018-04-30T05:47:07.910Z,12.97
2018-04-30T05:49:34.008Z,12.60
2018-04-30T05:52:00.070Z,12.00
2018-04-30T05:54:26.351Z,12.27
2018-04-30T05:56:53.300Z,12.60
2018-04-30T05:59:19.354Z,12.30
2018-04-30T06:01:45.401Z,11.50
2018-04-30T06:04:11.464Z,12.90
2018-04-30T06:06:37.609Z,12.20
2018-04-30T06:09:04.529Z,12.90
2018-04-30T06:11:30.611Z,13.03
2018-04-30T06:13:56.687Z,13.27
2018-04-30T06:16:23.523Z,13.40
2018-04-30T06:18:50.436Z,13.50
2018-04-30T06:21:16.512Z,14.40
2018-04-30T06:23:42.569Z,13.70
2018-04-30T06:26:09.465Z,13.47
2018-04-30T06:28:35.498Z,14.43
2018-04-30T06:31:01.529Z,13.63
2018-04-30T06:33:27.576Z,13.27
2018-04-30T06:35:53.724Z,14.23
2018-04-30T06:38:19.741Z,13.90
2018-04-30T06:40:46.372Z,13.30
2018-04-30T06:43:12.681Z,14.57
2018-04-30T06:45:38.738Z,12.60
2018-04-30T06:48:04.770Z,12.17
2018-04-30T06:50:30.887Z,14.20
2018-04-30T06:52:56.924Z,14.27
2018-04-30T06:55:22.983Z,13.20
2018-04-30T06:57:49.154Z,12.57
2018-04-30T07:00:15.191Z,13.10
2018-04-30T07:02:41.981Z,12.17
2018-04-30T07:05:08.818Z,12.67
2018-04-30T07:07:34.845Z,13.23
2018-04-30T07:10:00.913Z,11.07
2018-04-30T07:12:26.980Z,12.97
2018-04-30T07:14:53.067Z,12.30
2018-04-30T07:17:19.092Z,11.90
2018-04-30T07:19:45.177Z,13.47
2018-04-30T07:22:11.309Z,11.67
2018-04-30T07:24:37.364Z,13.73
2018-04-30T07:27:03.397Z,12.30
2018-04-30T07:29:30.303Z,13.30
2018-04-30T07:31:56.457Z,13.90
2018-04-30T07:34:22.514Z,14.23
2018-04-30T07:36:48.797Z,13.20
2018-04-30T07:39:15.574Z,12.57
2018-04-30T07:41:41.654Z,13.10
2018-04-30T07:44:07.940Z,13.03
2018-04-30T07:46:34.724Z,12.87
2018-04-30T07:49:00.765Z,14.13
2018-04-30T07:51:27.195Z,13.70
2018-04-30T07:53:53.276Z,13.37
2018-04-30T07:56:19.327Z,13.50
2018-04-30T07:58:45.470Z,15.07
2018-04-30T08:01:11.521Z,13.30
2018-04-30T08:03:37.545Z,13.63
2018-04-30T08:06:03.595Z,13.70
2018-04-30T08:08:30.394Z,14.77
2018-04-30T08:10:56.522Z,13.00
2018-04-30T08:13:22.588Z,13.33
2018-04-30T08:15:48.639Z,14.87
2018-04-30T08:18:14.703Z,14.20
2018-04-30T08:20:40.737Z,12.90
2018-04-30T08:23:07.528Z,14.03
2018-04-30T08:25:33.577Z,12.87
2018-04-30T08:27:59.629Z,13.97
2018-04-30T08:30:25.732Z,13.20
2018-04-30T08:32:51.799Z,12.53
2018-04-30T08:35:18.287Z,13.47
2018-04-30T08:37:44.359Z,13.37
2018-04-30T08:40:10.405Z,12.73
2018-04-30T08:42:37.405Z,12.77
2018-04-30T08:45:03.479Z,13.23
2018-04-30T08:47:30.257Z,13.67
2018-04-30T08:49:56.380Z,14.00
2018-04-30T08:52:22.567Z,13.70
2018-04-30T08:54:48.601Z,13.43
2018-04-30T08:57:14.650Z,13.53
2018-04-30T08:59:41.050Z,14.27
2018-04-30T09:02:07.096Z,13.73
2018-04-30T09:04:33.127Z,15.27
2018-04-30T09:06:59.168Z,14.53
2018-04-30T09:09:25.240Z,15.00
2018-04-30T09:11:51.325Z,14.20
2018-04-30T09:14:17.395Z,14.70
2018-04-30T09:16:43.413Z,14.67
2018-04-30T09:19:09.501Z,14.33
2018-04-30T09:21:35.563Z,15.27
2018-04-30T09:24:02.337Z,14.90
2018-04-30T09:26:28.406Z,15.57
2018-04-30T09:28:54.701Z,14.43
2018-04-30T09:31:20.750Z,14.80
2018-04-30T09:33:46.813Z,13.53
2018-04-30T09:36:12.845Z,14.47
2018-04-30T09:38:39.003Z,14.03
2018-04-30T09:41:05.042Z,14.73
2018-04-30T09:43:31.145Z,15.50
2018-04-30T09:45:57.200Z,16.27
2018-04-30T09:48:23.330Z,17.50
2018-04-30T09:50:49.412Z,17.23
2018-04-30T09:53:15.495Z,16.40
2018-04-30T09:55:41.560Z,17.87
2018-04-30T09:58:07.584Z,17.20
2018-04-30T10:00:33.666Z,18.33
2018-04-30T10:02:59.707Z,18.20
2018-04-30T10:05:25.767Z,18.57
2018-04-30T10:07:51.936Z,19.77
2018-04-30T10:10:17.977Z,19.33
2018-04-30T10:12:44.014Z,19.80
2018-04-30T10:15:10.331Z,20.80
2018-04-30T10:17:36.428Z,21.87
2018-04-30T10:20:02.460Z,21.37
2018-04-30T10:22:28.584Z,21.63
2018-04-30T10:24:54.657Z,21.03
2018-04-30T10:27:21.518Z,24.37
2018-04-30T10:29:48.373Z,23.53
2018-04-30T10:32:15.164Z,22.87
2018-04-30T10:34:41.206Z,21.30
2018-04-30T10:37:07.245Z,22.40
2018-04-30T10:39:33.342Z,22.40
2018-04-30T10:42:00.141Z,22.03
2018-04-30T10:44:26.224Z,20.50
2018-04-30T10:46:52.296Z,18.90
2018-04-30T10:49:18.361Z,21.00
2018-04-30T10:51:44.395Z,18.27
2018-04-30T10:54:10.510Z,18.90
2018-04-30T10:56:36.846Z,18.90
2018-04-30T10:59:03.616Z,19.77
2018-04-30T11:01:29.672Z,20.90
2018-04-30T11:03:56.216Z,21.73
2018-04-30T11:06:22.284Z,20.90
2018-04-30T11:08:48.329Z,20.43
2018-04-30T11:11:14.385Z,21.07
2018-04-30T11:13:41.171Z,20.90
2018-04-30T11:16:07.241Z,21.20
2018-04-30T11:18:33.328Z,23.60
2018-04-30T11:20:59.396Z,20.40
2018-04-30T11:23:25.478Z,22.97
2018-04-30T11:25:51.598Z,20.33
2018-04-30T11:28:17.669Z,21.50
2018-04-30T11:30:43.769Z,22.90
2018-04-30T11:33:09.870Z,22.70
2018-04-30T11:35:39.574Z,24.23
2018-04-30T11:38:05.662Z,23.47
2018-04-30T11:40:31.777Z,25.53
2018-04-30T11:42:57.831Z,26.17
2018-04-30T11:45:23.951Z,27.20
2018-04-30T11:47:50.005Z,28.07
2018-04-30T11:50:16.070Z,29.20
2018-04-30T11:52:42.224Z,29.20
2018-04-30T11:55:09.027Z,29.07
2018-04-30T11:57:35.090Z,30.10
2018-04-30T12:00:01.378Z,30.80
2018-04-30T12:02:27.494Z,29.13
2018-04-30T12:04:53.557Z,29.17
2018-04-30T12:07:19.740Z,27.17
2018-04-30T12:09:45.879Z,26.40
2018-04-30T12:12:11.930Z,27.47
2018-04-30T12:14:38.011Z,28.70
2018-04-30T12:17:04.047Z,28.53
2018-04-30T12:19:30.125Z,27.30
2018-04-30T12:21:56.250Z,26.00
2018-04-30T12:24:22.260Z,28.47
2018-04-30T12:26:48.321Z,25.33
2018-04-30T12:29:14.411Z,24.17
2018-04-30T12:31:40.457Z,20.93
2018-04-30T12:34:07.233Z,22.43
2018-04-30T12:36:33.318Z,21.33
2018-04-30T12:38:59.397Z,23.43
2018-04-30T12:41:25.632Z,18.77
2018-04-30T12:43:52.632Z,18.77
2018-04-30T12:46:18.712Z,9.50
2018-04-30T12:48:44.758Z,10.30
2018-04-30T12:51:11.616Z,9.20
2018-04-30T12:53:38.434Z,7.87
2018-04-30T12:56:04.513Z,7.83
2018-04-30T12:58:30.491Z,7.37
2018-04-30T13:00:56.567Z,8.10
2018-04-30T13:03:22.949Z,7.70
2018-04-30T13:05:49.009Z,8.33
2018-04-30T13:08:15.074Z,8.90
2018-04-30T13:10:41.116Z,8.20
2018-04-30T13:13:07.225Z,10.27
2018-04-30T13:15:33.289Z,9.70
2018-04-30T13:17:59.327Z,10.00
2018-04-30T13:20:25.406Z,9.53
2018-04-30T13:22:51.463Z,9.77
2018-04-30T13:25:17.535Z,9.30
2018-04-30T13:27:43.590Z,9.47
2018-04-30T13:30:09.688Z,10.60
2018-04-30T13:32:35.710Z,10.60
2018-04-30T13:35:01.769Z,10.33
2018-04-30T13:37:27.846Z,10.17
2018-04-30T13:39:53.934Z,8.10
2018-04-30T13:42:20.041Z,8.80
2018-04-30T13:44:46.111Z,8.53
2018-04-30T13:47:12.158Z,7.50
2018-04-30T13:49:38.229Z,8.30
2018-04-30T13:52:04.285Z,6.70
2018-04-30T13:54:31.063Z,6.80
2018-04-30T13:56:57.102Z,6.43
2018-04-30T13:59:23.152Z,5.83
2018-04-30T14:01:49.285Z,5.37
2018-04-30T14:04:15.272Z,4.93
2018-04-30T14:06:41.393Z,4.70
2018-04-30T14:09:07.469Z,4.30
2018-04-30T14:11:34.272Z,3.50
2018-04-30T14:14:00.367Z,3.23
2018-04-30T14:16:26.412Z,3.27
2018-04-30T14:18:52.516Z,2.63
2018-04-30T14:21:18.536Z,2.47
2018-04-30T14:23:44.568Z,2.10
2018-04-30T14:26:10.607Z,2.17
2018-04-30T14:28:36.670Z,1.80
2018-04-30T14:31:02.738Z,1.87
2018-04-30T14:33:28.897Z,1.70
2018-04-30T14:35:55.008Z,1.90
2018-04-30T14:38:21.189Z,2.10
2018-04-30T14:40:47.241Z,1.80
2018-04-30T14:43:13.326Z,1.63
2018-04-30T14:45:39.424Z,2.20
2018-04-30T14:48:05.494Z,2.10
2018-04-30T14:50:32.292Z,2.00
2018-04-30T14:52:58.361Z,1.37
2018-04-30T14:55:24.470Z,1.30
2018-04-30T14:57:51.334Z,1.40
2018-04-30T15:00:17.389Z,1.40
2018-04-30T15:02:43.469Z,1.70
2018-04-30T15:05:10.277Z,1.80
2018-04-30T15:07:36.336Z,1.80
2018-04-30T15:10:03.111Z,1.80
2018-04-30T15:12:29.141Z,1.63
2018-04-30T15:14:56.726Z,1.80
2018-04-30T15:17:22.808Z,1.70
2018-04-30T15:19:49.852Z,1.83
2018-04-30T15:22:16.002Z,2.07
2018-04-30T15:24:42.064Z,1.70
2018-04-30T15:27:08.091Z,2.00
2018-04-30T15:29:34.183Z,2.03
2018-04-30T15:32:00.207Z,1.70
2018-04-30T15:34:26.236Z,1.63
2018-04-30T15:36:53.295Z,1.93
2018-04-30T15:39:20.103Z,1.73
2018-04-30T15:41:46.143Z,1.50
2018-04-30T15:44:12.193Z,1.47
2018-04-30T15:46:38.279Z,1.80
2018-04-30T15:49:04.285Z,1.37
2018-04-30T15:51:30.377Z,1.40
2018-04-30T15:53:56.440Z,1.40
2018-04-30T15:56:22.535Z,1.50
2018-04-30T15:58:48.863Z,1.70
2018-04-30T16:01:15.811Z,1.50
2018-04-30T16:03:41.871Z,1.37
2018-04-30T16:06:07.910Z,1.47
2018-04-30T16:08:33.935Z,1.40
2018-04-30T16:11:00.030Z,1.40
2018-04-30T16:13:26.161Z,1.30
2018-04-30T16:15:52.316Z,1.70
2018-04-30T16:18:18.372Z,1.30
2018-04-30T16:20:45.152Z,1.30
2018-04-30T16:23:11.588Z,1.30
2018-04-30T16:25:37.633Z,1.40
2018-04-30T16:28:04.686Z,1.40
2018-04-30T16:30:30.772Z,1.20
2018-04-30T16:32:56.844Z,1.40
2018-04-30T16:35:23.675Z,1.60
2018-04-30T16:37:49.719Z,1.37
2018-04-30T16:40:15.808Z,1.10
2018-04-30T16:42:41.888Z,1.10
2018-04-30T16:45:07.950Z,1.40
2018-04-30T16:47:34.708Z,1.50
2018-04-30T16:50:01.486Z,1.40
2018-04-30T16:52:27.523Z,1.40
2018-04-30T16:54:53.584Z,1.60
2018-04-30T16:57:19.625Z,1.10
2018-04-30T16:59:45.754Z,1.50
2018-04-30T17:02:11.819Z,1.47
2018-04-30T17:04:37.843Z,1.37
2018-04-30T17:07:03.873Z,1.40
2018-04-30T17:09:29.929Z,1.40
2018-04-30T17:11:55.973Z,1.50
2018-04-30T17:14:22.090Z,1.20
2018-04-30T17:16:55.077Z,1.20
2018-04-30T17:19:21.152Z,1.13
2018-04-30T17:21:47.215Z,1.37
2018-04-30T17:24:14.064Z,1.20
2018-04-30T17:26:40.104Z,3.10
2018-04-30T17:29:06.983Z,1.13
2018-04-30T17:31:33.010Z,1.40
2018-04-30T17:33:59.781Z,1.73
2018-04-30T17:36:25.903Z,1.43
2018-04-30T17:38:52.793Z,1.53
2018-04-30T17:41:18.867Z,1.83
2018-04-30T17:43:52.582Z,1.70
2018-04-30T17:46:18.725Z,1.60
2018-04-30T17:48:44.789Z,1.47
2018-04-30T17:51:10.787Z,1.30
2018-04-30T17:53:36.816Z,1.30
2018-04-30T17:56:02.890Z,1.67
2018-04-30T17:58:28.927Z,1.20
2018-04-30T18:00:54.982Z,2.13
2018-04-30T18:03:22.299Z,1.50
2018-04-30T18:05:48.361Z,1.50
2018-04-30T18:08:14.435Z,1.30
2018-04-30T18:10:40.450Z,1.70
2018-04-30T18:13:07.418Z,1.83
2018-04-30T18:15:33.460Z,1.77
2018-04-30T18:17:59.468Z,2.83
2018-04-30T18:20:25.530Z,1.53
2018-04-30T18:22:51.570Z,1.50
2018-04-30T18:25:17.597Z,1.50
2018-04-30T18:27:44.385Z,1.60
2018-04-30T18:30:10.468Z,1.60
2018-04-30T18:32:36.729Z,1.50
2018-04-30T18:35:03.902Z,1.30
2018-04-30T18:37:29.945Z,1.90
2018-04-30T18:39:56.016Z,2.00
2018-04-30T18:42:22.047Z,1.87
2018-04-30T18:44:49.141Z,1.30
2018-04-30T18:47:15.167Z,1.30
2018-04-30T18:49:41.238Z,1.70
2018-04-30T18:52:07.321Z,1.60
2018-04-30T18:54:34.074Z,1.40
2018-04-30T18:57:00.113Z,1.70
2018-04-30T18:59:26.500Z,1.70
2018-04-30T19:01:53.332Z,1.87
2018-04-30T19:04:19.368Z,2.83
2018-04-30T19:06:45.386Z,1.90
2018-04-30T19:09:11.403Z,2.70
2018-04-30T19:11:37.577Z,1.70
2018-04-30T19:14:05.078Z,1.93
2018-04-30T19:16:31.858Z,2.17
2018-04-30T19:18:58.089Z,2.00
2018-04-30T19:21:24.913Z,1.80
2018-04-30T19:23:50.952Z,2.20
2018-04-30T19:26:17.025Z,5.13
2018-04-30T19:28:43.172Z,1.53
2018-04-30T19:31:09.236Z,1.50
2018-04-30T19:33:36.016Z,1.53
2018-04-30T19:36:02.117Z,1.73
2018-04-30T19:38:28.176Z,1.60
2018-04-30T19:40:54.316Z,1.67
2018-04-30T19:43:20.687Z,1.50
2018-04-30T19:45:46.761Z,2.60
2018-04-30T19:48:12.788Z,1.70
2018-04-30T19:50:39.007Z,1.40
2018-04-30T19:53:05.768Z,1.40
2018-04-30T19:55:32.528Z,2.00
2018-04-30T19:57:59.372Z,2.33
2018-04-30T20:00:26.145Z,1.30
2018-04-30T20:02:52.235Z,1.43
2018-04-30T20:05:18.318Z,1.70
2018-04-30T20:07:45.093Z,1.43
2018-04-30T20:10:11.104Z,1.67
2018-04-30T20:12:37.875Z,2.60
2018-04-30T20:15:03.937Z,1.50
2018-04-30T20:17:29.986Z,1.30
2018-04-30T20:19:56.052Z,1.50
2018-04-30T20:22:22.135Z,3.50
2018-04-30T20:24:48.288Z,1.50
2018-04-30T20:27:14.311Z,1.40
2018-04-30T20:29:40.319Z,1.53
2018-04-30T20:32:07.107Z,1.70
2018-04-30T20:34:33.140Z,1.60
2018-04-30T20:37:00.204Z,1.80
2018-04-30T20:39:26.245Z,1.60
2018-04-30T20:41:52.368Z,1.90
2018-04-30T20:44:18.426Z,2.03
2018-04-30T20:46:44.483Z,1.90
2018-04-30T20:49:10.534Z,2.00
2018-04-30T20:51:36.676Z,1.53
2018-04-30T20:54:02.718Z,1.83
2018-04-30T20:56:28.775Z,99.50
2018-04-30T20:58:54.832Z,2.50
2018-04-30T21:01:20.858Z,1.93
2018-04-30T21:03:46.903Z,2.90
2018-04-30T21:06:12.948Z,2.40
2018-04-30T21:08:51.392Z,2.90
2018-04-30T21:11:17.438Z,3.70
2018-04-30T21:13:43.479Z,4.97
2018-04-30T21:16:09.558Z,2.63
2018-04-30T21:18:36.341Z,4.30
2018-04-30T21:21:02.389Z,4.43
2018-04-30T21:23:28.444Z,2.30
2018-04-30T21:25:54.497Z,2.50
2018-04-30T21:28:20.541Z,2.47
2018-04-30T21:30:46.591Z,2.90
2018-04-30T21:33:13.375Z,3.40
2018-04-30T21:35:39.492Z,4.30
2018-04-30T21:38:06.323Z,2.57
2018-04-30T21:40:32.374Z,4.03
2018-04-30T21:42:58.530Z,2.47
2018-04-30T21:45:25.345Z,2.30
2018-04-30T21:47:51.437Z,3.17
2018-04-30T21:50:17.508Z,3.10
2018-04-30T21:52:43.611Z,2.40
2018-04-30T21:55:09.640Z,2.50
2018-04-30T21:57:35.878Z,2.30
2018-04-30T22:00:02.603Z,2.07
2018-04-30T22:02:28.817Z,1.77
2018-04-30T22:04:54.940Z,1.80
2018-04-30T22:07:20.952Z,1.50
2018-04-30T22:09:47.006Z,6.37
2018-04-30T22:12:13.247Z,1.50
2018-04-30T22:14:39.268Z,1.60
2018-04-30T22:17:05.387Z,1.70
2018-04-30T22:19:31.669Z,1.50
2018-04-30T22:21:57.738Z,1.70
2018-04-30T22:24:24.070Z,1.57
2018-04-30T22:26:50.159Z,1.30
2018-04-30T22:29:16.265Z,1.13
2018-04-30T22:31:42.813Z,1.47
2018-04-30T22:34:08.878Z,1.80
2018-04-30T22:36:35.669Z,2.00
2018-04-30T22:39:01.786Z,2.13
2018-04-30T22:41:27.834Z,1.73
2018-04-30T22:43:53.898Z,1.67
2018-04-30T22:46:19.937Z,7.43
2018-04-30T22:48:46.000Z,1.80
2018-04-30T22:51:12.178Z,1.73
2018-04-30T22:53:38.304Z,1.60
2018-04-30T22:56:05.088Z,1.83
2018-04-30T22:58:31.172Z,1.50
2018-04-30T23:00:57.246Z,7.10
2018-04-30T23:03:23.307Z,8.97
2018-04-30T23:05:49.521Z,2.27
2018-04-30T23:08:15.616Z,1.63
2018-04-30T23:10:41.642Z,2.80
2018-04-30T23:13:07.696Z,1.70
2018-04-30T23:15:33.721Z,1.90
2018-04-30T23:17:59.749Z,1.60
2018-04-30T23:20:26.856Z,2.93
2018-04-30T23:22:53.770Z,3.10
2018-04-30T23:25:19.743Z,1.67
2018-04-30T23:27:46.972Z,1.40
2018-04-30T23:30:13.000Z,1.57
2018-04-30T23:32:39.056Z,1.60
2018-04-30T23:35:05.092Z,1.63
2018-04-30T23:37:31.189Z,1.80
2018-04-30T23:39:57.314Z,1.40
2018-04-30T23:42:23.372Z,1.60
2018-04-30T23:44:49.446Z,1.40
2018-04-30T23:47:15.504Z,2.00
2018-04-30T23:49:42.273Z,1.10
2018-04-30T23:52:08.365Z,1.20
2018-04-30T23:54:34.422Z,1.30
2018-04-30T23:57:00.490Z,1.20
2018-04-30T23:59:26.538Z,1.60
